sensor_id;sensor_type;location;lat;lon;timestamp;P1;durP1;ratioP1;P2;durP2;ratioP2
65998;SDS011;52766;56.008;37.440;2023-09-12T00:02:14;45.78;;;19.20;;
65998;SDS011;52766;56.008;37.440;2023-09-12T00:04:40;46.10;;;19.35;;
65998;SDS011;52766;56.008;37.440;2023-09-12T00:07:06;58.78;;;22.42;;
65998;SDS011;52766;56.008;37.440;2023-09-12T00:09:31;50.50;;;21.25;;
65998;SDS011;52766;56.008;37.440;2023-09-12T00:11:57;49.35;;;21.45;;
65998;SDS011;52766;56.008;37.440;2023-09-12T00:14:23;40.28;;;18.63;;
65998;SDS011;52766;56.008;37.440;2023-09-12T00:16:49;51.63;;;19.70;;
65998;SDS011;52766;56.008;37.440;2023-09-12T00:19:17;51.55;;;20.00;;
65998;SDS011;52766;56.008;37.440;2023-09-12T00:21:43;49.30;;;19.23;;
65998;SDS011;52766;56.008;37.440;2023-09-12T00:24:09;48.28;;;19.40;;
65998;SDS011;52766;56.008;37.440;2023-09-12T00:26:35;49.55;;;20.77;;
65998;SDS011;52766;56.008;37.440;2023-09-12T00:29:01;49.83;;;19.83;;
65998;SDS011;52766;56.008;37.440;2023-09-12T00:31:29;41.10;;;16.63;;
65998;SDS011;52766;56.008;37.440;2023-09-12T00:33:55;39.95;;;17.52;;
65998;SDS011;52766;56.008;37.440;2023-09-12T00:36:21;48.92;;;20.30;;
65998;SDS011;52766;56.008;37.440;2023-09-12T00:38:46;50.63;;;21.55;;
65998;SDS011;52766;56.008;37.440;2023-09-12T00:41:12;48.38;;;20.83;;
65998;SDS011;52766;56.008;37.440;2023-09-12T00:43:38;47.50;;;18.98;;
65998;SDS011;52766;56.008;37.440;2023-09-12T00:46:04;47.83;;;19.25;;
65998;SDS011;52766;56.008;37.440;2023-09-12T00:48:30;47.10;;;20.23;;
65998;SDS011;52766;56.008;37.440;2023-09-12T00:50:56;46.85;;;18.60;;
65998;SDS011;52766;56.008;37.440;2023-09-12T00:53:23;46.05;;;19.60;;
65998;SDS011;52766;56.008;37.440;2023-09-12T00:55:50;42.30;;;17.60;;
65998;SDS011;52766;56.008;37.440;2023-09-12T00:58:22;41.63;;;16.50;;
65998;SDS011;52766;56.008;37.440;2023-09-12T01:03:48;42.97;;;17.55;;
65998;SDS011;52766;56.008;37.440;2023-09-12T01:06:14;40.72;;;17.80;;
65998;SDS011;52766;56.008;37.440;2023-09-12T01:08:42;46.45;;;20.05;;
65998;SDS011;52766;56.008;37.440;2023-09-12T01:11:07;50.15;;;20.80;;
65998;SDS011;52766;56.008;37.440;2023-09-12T01:13:34;45.33;;;19.63;;
65998;SDS011;52766;56.008;37.440;2023-09-12T01:16:00;47.35;;;19.50;;
65998;SDS011;52766;56.008;37.440;2023-09-12T01:18:26;49.20;;;19.83;;
65998;SDS011;52766;56.008;37.440;2023-09-12T01:28:52;40.58;;;16.67;;
65998;SDS011;52766;56.008;37.440;2023-09-12T01:31:22;43.95;;;18.15;;
65998;SDS011;52766;56.008;37.440;2023-09-12T01:33:49;51.78;;;19.85;;
65998;SDS011;52766;56.008;37.440;2023-09-12T01:36:15;44.75;;;18.90;;
65998;SDS011;52766;56.008;37.440;2023-09-12T01:38:41;55.53;;;20.50;;
65998;SDS011;52766;56.008;37.440;2023-09-12T01:41:07;57.97;;;22.35;;
65998;SDS011;52766;56.008;37.440;2023-09-12T01:43:34;57.35;;;21.15;;
65998;SDS011;52766;56.008;37.440;2023-09-12T01:46:03;59.33;;;23.38;;
65998;SDS011;52766;56.008;37.440;2023-09-12T01:48:31;60.17;;;21.88;;
65998;SDS011;52766;56.008;37.440;2023-09-12T01:51:00;58.35;;;24.13;;
65998;SDS011;52766;56.008;37.440;2023-09-12T01:53:27;55.97;;;22.00;;
65998;SDS011;52766;56.008;37.440;2023-09-12T01:55:56;58.33;;;22.60;;
65998;SDS011;52766;56.008;37.440;2023-09-12T01:58:23;60.22;;;22.33;;
65998;SDS011;52766;56.008;37.440;2023-09-12T02:00:51;59.05;;;23.15;;
65998;SDS011;52766;56.008;37.440;2023-09-12T02:03:16;59.65;;;23.40;;
65998;SDS011;52766;56.008;37.440;2023-09-12T02:05:42;57.50;;;22.35;;
65998;SDS011;52766;56.008;37.440;2023-09-12T02:08:10;60.63;;;24.45;;
65998;SDS011;52766;56.008;37.440;2023-09-12T02:10:36;63.50;;;23.52;;
65998;SDS011;52766;56.008;37.440;2023-09-12T02:13:02;57.53;;;23.23;;
65998;SDS011;52766;56.008;37.440;2023-09-12T02:15:28;66.78;;;25.50;;
65998;SDS011;52766;56.008;37.440;2023-09-12T02:17:55;61.22;;;24.38;;
65998;SDS011;52766;56.008;37.440;2023-09-12T02:20:21;60.53;;;24.95;;
65998;SDS011;52766;56.008;37.440;2023-09-12T02:22:47;65.32;;;25.38;;
65998;SDS011;52766;56.008;37.440;2023-09-12T02:25:13;57.03;;;22.75;;
65998;SDS011;52766;56.008;37.440;2023-09-12T02:27:39;53.00;;;20.70;;
65998;SDS011;52766;56.008;37.440;2023-09-12T02:30:05;52.88;;;22.02;;
65998;SDS011;52766;56.008;37.440;2023-09-12T02:32:35;54.22;;;22.58;;
65998;SDS011;52766;56.008;37.440;2023-09-12T02:35:01;52.80;;;22.85;;
65998;SDS011;52766;56.008;37.440;2023-09-12T02:37:30;56.58;;;22.77;;
65998;SDS011;52766;56.008;37.440;2023-09-12T02:39:56;52.05;;;22.98;;
65998;SDS011;52766;56.008;37.440;2023-09-12T02:42:22;57.95;;;22.75;;
65998;SDS011;52766;56.008;37.440;2023-09-12T02:44:49;57.42;;;22.80;;
65998;SDS011;52766;56.008;37.440;2023-09-12T02:47:18;56.55;;;22.60;;
65998;SDS011;52766;56.008;37.440;2023-09-12T02:49:44;47.72;;;20.20;;
65998;SDS011;52766;56.008;37.440;2023-09-12T02:52:09;50.72;;;20.73;;
65998;SDS011;52766;56.008;37.440;2023-09-12T02:54:35;52.25;;;21.98;;
65998;SDS011;52766;56.008;37.440;2023-09-12T02:57:01;53.72;;;20.95;;
65998;SDS011;52766;56.008;37.440;2023-09-12T02:59:27;52.28;;;22.05;;
65998;SDS011;52766;56.008;37.440;2023-09-12T03:01:56;54.70;;;22.20;;
65998;SDS011;52766;56.008;37.440;2023-09-12T03:04:23;57.03;;;23.10;;
65998;SDS011;52766;56.008;37.440;2023-09-12T03:06:50;50.90;;;19.85;;
65998;SDS011;52766;56.008;37.440;2023-09-12T03:09:16;50.05;;;20.20;;
65998;SDS011;52766;56.008;37.440;2023-09-12T03:11:45;53.85;;;22.15;;
65998;SDS011;52766;56.008;37.440;2023-09-12T03:14:11;48.33;;;19.00;;
65998;SDS011;52766;56.008;37.440;2023-09-12T03:16:37;53.13;;;21.92;;
65998;SDS011;52766;56.008;37.440;2023-09-12T03:19:04;55.90;;;21.05;;
65998;SDS011;52766;56.008;37.440;2023-09-12T03:21:30;52.47;;;21.80;;
65998;SDS011;52766;56.008;37.440;2023-09-12T03:23:56;49.70;;;20.25;;
65998;SDS011;52766;56.008;37.440;2023-09-12T03:26:22;53.38;;;22.23;;
65998;SDS011;52766;56.008;37.440;2023-09-12T03:28:49;46.35;;;19.95;;
65998;SDS011;52766;56.008;37.440;2023-09-12T03:31:17;50.55;;;20.20;;
65998;SDS011;52766;56.008;37.440;2023-09-12T03:33:43;51.90;;;19.33;;
65998;SDS011;52766;56.008;37.440;2023-09-12T03:36:15;52.42;;;21.33;;
65998;SDS011;52766;56.008;37.440;2023-09-12T03:38:45;53.13;;;21.02;;
65998;SDS011;52766;56.008;37.440;2023-09-12T03:41:13;46.95;;;19.00;;
65998;SDS011;52766;56.008;37.440;2023-09-12T03:43:47;50.75;;;20.63;;
65998;SDS011;52766;56.008;37.440;2023-09-12T03:46:15;53.80;;;22.08;;
65998;SDS011;52766;56.008;37.440;2023-09-12T03:48:44;56.40;;;21.92;;
65998;SDS011;52766;56.008;37.440;2023-09-12T03:51:11;46.47;;;18.80;;
65998;SDS011;52766;56.008;37.440;2023-09-12T03:53:38;51.60;;;20.50;;
65998;SDS011;52766;56.008;37.440;2023-09-12T03:56:06;49.55;;;20.65;;
65998;SDS011;52766;56.008;37.440;2023-09-12T03:58:39;47.33;;;20.70;;
65998;SDS011;52766;56.008;37.440;2023-09-12T04:01:12;48.95;;;19.17;;
65998;SDS011;52766;56.008;37.440;2023-09-12T04:03:44;45.83;;;17.92;;
65998;SDS011;52766;56.008;37.440;2023-09-12T04:06:19;44.38;;;18.55;;
65998;SDS011;52766;56.008;37.440;2023-09-12T04:08:52;47.17;;;17.77;;
65998;SDS011;52766;56.008;37.440;2023-09-12T04:11:19;44.83;;;20.23;;
65998;SDS011;52766;56.008;37.440;2023-09-12T04:13:48;41.70;;;17.05;;
65998;SDS011;52766;56.008;37.440;2023-09-12T04:16:14;46.40;;;19.92;;
65998;SDS011;52766;56.008;37.440;2023-09-12T04:18:41;52.20;;;20.80;;
65998;SDS011;52766;56.008;37.440;2023-09-12T04:21:13;48.65;;;21.10;;
65998;SDS011;52766;56.008;37.440;2023-09-12T04:23:49;52.38;;;19.55;;
65998;SDS011;52766;56.008;37.440;2023-09-12T04:26:21;50.20;;;22.55;;
65998;SDS011;52766;56.008;37.440;2023-09-12T04:28:52;48.65;;;20.27;;
65998;SDS011;52766;56.008;37.440;2023-09-12T04:31:19;46.90;;;18.60;;
65998;SDS011;52766;56.008;37.440;2023-09-12T04:33:47;43.40;;;19.15;;
65998;SDS011;52766;56.008;37.440;2023-09-12T04:36:13;44.08;;;18.52;;
65998;SDS011;52766;56.008;37.440;2023-09-12T04:38:46;39.40;;;15.95;;
65998;SDS011;52766;56.008;37.440;2023-09-12T04:41:16;35.25;;;16.45;;
65998;SDS011;52766;56.008;37.440;2023-09-12T04:43:46;37.78;;;17.17;;
65998;SDS011;52766;56.008;37.440;2023-09-12T04:46:25;41.20;;;18.80;;
65998;SDS011;52766;56.008;37.440;2023-09-12T04:48:57;43.50;;;19.10;;
65998;SDS011;52766;56.008;37.440;2023-09-12T04:51:25;42.42;;;18.27;;
65998;SDS011;52766;56.008;37.440;2023-09-12T04:53:52;54.47;;;21.73;;
65998;SDS011;52766;56.008;37.440;2023-09-12T04:56:25;46.83;;;20.60;;
65998;SDS011;52766;56.008;37.440;2023-09-12T04:58:56;44.83;;;19.05;;
65998;SDS011;52766;56.008;37.440;2023-09-12T05:01:26;44.97;;;20.67;;
65998;SDS011;52766;56.008;37.440;2023-09-12T05:03:54;42.33;;;18.40;;
65998;SDS011;52766;56.008;37.440;2023-09-12T05:08:52;44.60;;;18.02;;
65998;SDS011;52766;56.008;37.440;2023-09-12T05:11:19;44.00;;;18.45;;
65998;SDS011;52766;56.008;37.440;2023-09-12T05:13:51;42.53;;;19.23;;
65998;SDS011;52766;56.008;37.440;2023-09-12T05:16:17;42.58;;;18.40;;
65998;SDS011;52766;56.008;37.440;2023-09-12T05:18:43;45.90;;;17.75;;
65998;SDS011;52766;56.008;37.440;2023-09-12T05:21:11;42.13;;;18.42;;
65998;SDS011;52766;56.008;37.440;2023-09-12T05:23:37;40.25;;;19.02;;
65998;SDS011;52766;56.008;37.440;2023-09-12T05:26:08;46.08;;;20.08;;
65998;SDS011;52766;56.008;37.440;2023-09-12T05:28:37;46.33;;;19.08;;
65998;SDS011;52766;56.008;37.440;2023-09-12T05:31:16;40.75;;;20.08;;
65998;SDS011;52766;56.008;37.440;2023-09-12T05:33:48;39.15;;;19.15;;
65998;SDS011;52766;56.008;37.440;2023-09-12T05:36:19;44.40;;;19.88;;
65998;SDS011;52766;56.008;37.440;2023-09-12T05:38:49;38.78;;;19.90;;
65998;SDS011;52766;56.008;37.440;2023-09-12T05:41:15;41.20;;;17.42;;
65998;SDS011;52766;56.008;37.440;2023-09-12T05:43:41;38.22;;;17.65;;
65998;SDS011;52766;56.008;37.440;2023-09-12T05:46:07;39.00;;;18.00;;
65998;SDS011;52766;56.008;37.440;2023-09-12T05:48:36;32.20;;;16.50;;
65998;SDS011;52766;56.008;37.440;2023-09-12T05:51:03;35.80;;;16.17;;
65998;SDS011;52766;56.008;37.440;2023-09-12T05:53:29;35.80;;;17.83;;
65998;SDS011;52766;56.008;37.440;2023-09-12T05:55:56;42.78;;;18.95;;
65998;SDS011;52766;56.008;37.440;2023-09-12T05:58:22;35.30;;;17.60;;
65998;SDS011;52766;56.008;37.440;2023-09-12T06:00:48;32.72;;;16.70;;
65998;SDS011;52766;56.008;37.440;2023-09-12T06:03:14;28.50;;;14.40;;
65998;SDS011;52766;56.008;37.440;2023-09-12T06:05:41;34.42;;;16.20;;
65998;SDS011;52766;56.008;37.440;2023-09-12T06:08:06;31.85;;;16.25;;
65998;SDS011;52766;56.008;37.440;2023-09-12T06:10:32;34.92;;;15.90;;
65998;SDS011;52766;56.008;37.440;2023-09-12T06:13:00;33.15;;;15.40;;
65998;SDS011;52766;56.008;37.440;2023-09-12T06:15:26;32.42;;;15.13;;
65998;SDS011;52766;56.008;37.440;2023-09-12T06:17:52;33.70;;;17.10;;
65998;SDS011;52766;56.008;37.440;2023-09-12T06:20:19;35.42;;;15.27;;
65998;SDS011;52766;56.008;37.440;2023-09-12T06:22:45;33.03;;;15.65;;
65998;SDS011;52766;56.008;37.440;2023-09-12T06:25:11;31.02;;;14.90;;
65998;SDS011;52766;56.008;37.440;2023-09-12T06:27:37;32.33;;;15.35;;
65998;SDS011;52766;56.008;37.440;2023-09-12T06:30:03;33.17;;;15.52;;
65998;SDS011;52766;56.008;37.440;2023-09-12T06:32:33;30.45;;;15.88;;
65998;SDS011;52766;56.008;37.440;2023-09-12T06:35:00;35.65;;;15.70;;
65998;SDS011;52766;56.008;37.440;2023-09-12T06:37:29;31.48;;;15.63;;
65998;SDS011;52766;56.008;37.440;2023-09-12T06:39:54;33.90;;;15.15;;
65998;SDS011;52766;56.008;37.440;2023-09-12T06:42:20;29.05;;;14.27;;
65998;SDS011;52766;56.008;37.440;2023-09-12T06:44:46;32.33;;;15.30;;
65998;SDS011;52766;56.008;37.440;2023-09-12T06:47:12;36.35;;;16.63;;
65998;SDS011;52766;56.008;37.440;2023-09-12T06:49:39;33.47;;;16.33;;
65998;SDS011;52766;56.008;37.440;2023-09-12T06:52:05;33.45;;;16.92;;
65998;SDS011;52766;56.008;37.440;2023-09-12T06:54:32;30.83;;;16.30;;
65998;SDS011;52766;56.008;37.440;2023-09-12T06:56:58;31.00;;;15.77;;
65998;SDS011;52766;56.008;37.440;2023-09-12T06:59:24;31.45;;;13.77;;
65998;SDS011;52766;56.008;37.440;2023-09-12T07:01:50;37.17;;;18.23;;
65998;SDS011;52766;56.008;37.440;2023-09-12T07:04:16;34.30;;;16.60;;
65998;SDS011;52766;56.008;37.440;2023-09-12T07:06:42;35.83;;;18.65;;
65998;SDS011;52766;56.008;37.440;2023-09-12T07:09:08;34.08;;;17.35;;
65998;SDS011;52766;56.008;37.440;2023-09-12T07:11:34;35.40;;;17.20;;
65998;SDS011;52766;56.008;37.440;2023-09-12T07:14:01;35.08;;;17.52;;
65998;SDS011;52766;56.008;37.440;2023-09-12T07:16:27;34.88;;;18.52;;
65998;SDS011;52766;56.008;37.440;2023-09-12T07:18:52;39.55;;;16.98;;
65998;SDS011;52766;56.008;37.440;2023-09-12T07:21:21;33.03;;;16.27;;
65998;SDS011;52766;56.008;37.440;2023-09-12T07:23:47;28.67;;;15.38;;
65998;SDS011;52766;56.008;37.440;2023-09-12T07:26:14;29.33;;;15.30;;
65998;SDS011;52766;56.008;37.440;2023-09-12T07:28:41;28.10;;;14.38;;
65998;SDS011;52766;56.008;37.440;2023-09-12T07:31:07;30.55;;;14.32;;
65998;SDS011;52766;56.008;37.440;2023-09-12T07:33:33;30.48;;;14.32;;
65998;SDS011;52766;56.008;37.440;2023-09-12T07:35:59;27.30;;;14.63;;
65998;SDS011;52766;56.008;37.440;2023-09-12T07:38:28;39.60;;;14.70;;
65998;SDS011;52766;56.008;37.440;2023-09-12T07:40:57;28.38;;;14.35;;
65998;SDS011;52766;56.008;37.440;2023-09-12T07:43:23;28.63;;;13.93;;
65998;SDS011;52766;56.008;37.440;2023-09-12T07:45:54;28.80;;;13.13;;
65998;SDS011;52766;56.008;37.440;2023-09-12T07:48:22;27.10;;;13.80;;
65998;SDS011;52766;56.008;37.440;2023-09-12T07:50:49;34.80;;;13.60;;
65998;SDS011;52766;56.008;37.440;2023-09-12T07:53:15;25.13;;;13.18;;
65998;SDS011;52766;56.008;37.440;2023-09-12T07:55:41;25.20;;;13.35;;
65998;SDS011;52766;56.008;37.440;2023-09-12T07:58:15;25.02;;;13.30;;
65998;SDS011;52766;56.008;37.440;2023-09-12T08:00:44;27.40;;;13.50;;
65998;SDS011;52766;56.008;37.440;2023-09-12T08:03:12;23.95;;;12.80;;
65998;SDS011;52766;56.008;37.440;2023-09-12T08:05:42;24.08;;;12.45;;
65998;SDS011;52766;56.008;37.440;2023-09-12T08:08:11;21.30;;;11.18;;
65998;SDS011;52766;56.008;37.440;2023-09-12T08:10:38;23.20;;;11.52;;
65998;SDS011;52766;56.008;37.440;2023-09-12T08:13:06;20.60;;;12.00;;
65998;SDS011;52766;56.008;37.440;2023-09-12T08:15:32;20.55;;;10.80;;
65998;SDS011;52766;56.008;37.440;2023-09-12T08:17:58;22.77;;;10.57;;
65998;SDS011;52766;56.008;37.440;2023-09-12T08:20:26;19.65;;;9.93;;
65998;SDS011;52766;56.008;37.440;2023-09-12T08:22:52;16.17;;;8.50;;
65998;SDS011;52766;56.008;37.440;2023-09-12T08:25:18;18.10;;;9.63;;
65998;SDS011;52766;56.008;37.440;2023-09-12T08:27:47;19.90;;;10.00;;
65998;SDS011;52766;56.008;37.440;2023-09-12T08:30:13;21.50;;;10.07;;
65998;SDS011;52766;56.008;37.440;2023-09-12T08:32:40;22.85;;;10.27;;
65998;SDS011;52766;56.008;37.440;2023-09-12T08:35:10;18.00;;;9.00;;
65998;SDS011;52766;56.008;37.440;2023-09-12T08:37:42;16.10;;;7.95;;
65998;SDS011;52766;56.008;37.440;2023-09-12T08:40:09;30.60;;;10.55;;
65998;SDS011;52766;56.008;37.440;2023-09-12T08:42:44;20.00;;;10.13;;
65998;SDS011;52766;56.008;37.440;2023-09-12T08:45:13;16.85;;;8.85;;
65998;SDS011;52766;56.008;37.440;2023-09-12T08:47:40;17.50;;;8.60;;
65998;SDS011;52766;56.008;37.440;2023-09-12T08:50:12;23.50;;;9.73;;
65998;SDS011;52766;56.008;37.440;2023-09-12T08:52:40;19.17;;;10.63;;
65998;SDS011;52766;56.008;37.440;2023-09-12T08:55:08;16.95;;;9.65;;
65998;SDS011;52766;56.008;37.440;2023-09-12T08:57:35;18.75;;;9.40;;
65998;SDS011;52766;56.008;37.440;2023-09-12T09:00:04;18.23;;;9.45;;
65998;SDS011;52766;56.008;37.440;2023-09-12T09:02:40;20.52;;;10.13;;
65998;SDS011;52766;56.008;37.440;2023-09-12T09:05:07;18.35;;;9.25;;
65998;SDS011;52766;56.008;37.440;2023-09-12T09:07:38;19.88;;;10.07;;
65998;SDS011;52766;56.008;37.440;2023-09-12T09:10:10;21.67;;;9.45;;
65998;SDS011;52766;56.008;37.440;2023-09-12T09:12:44;17.35;;;9.82;;
65998;SDS011;52766;56.008;37.440;2023-09-12T09:15:26;17.02;;;9.55;;
65998;SDS011;52766;56.008;37.440;2023-09-12T09:17:54;20.05;;;11.25;;
65998;SDS011;52766;56.008;37.440;2023-09-12T09:20:32;17.10;;;9.90;;
65998;SDS011;52766;56.008;37.440;2023-09-12T09:23:03;18.02;;;10.63;;
65998;SDS011;52766;56.008;37.440;2023-09-12T09:25:38;21.45;;;10.60;;
65998;SDS011;52766;56.008;37.440;2023-09-12T09:28:15;21.40;;;11.55;;
65998;SDS011;52766;56.008;37.440;2023-09-12T09:30:48;22.58;;;10.80;;
65998;SDS011;52766;56.008;37.440;2023-09-12T09:33:20;19.50;;;10.50;;
65998;SDS011;52766;56.008;37.440;2023-09-12T09:35:51;18.35;;;10.27;;
65998;SDS011;52766;56.008;37.440;2023-09-12T09:38:28;19.85;;;9.73;;
65998;SDS011;52766;56.008;37.440;2023-09-12T09:40:54;17.98;;;10.00;;
65998;SDS011;52766;56.008;37.440;2023-09-12T09:43:21;22.77;;;10.27;;
65998;SDS011;52766;56.008;37.440;2023-09-12T09:45:47;19.40;;;9.82;;
65998;SDS011;52766;56.008;37.440;2023-09-12T09:48:20;23.63;;;11.23;;
65998;SDS011;52766;56.008;37.440;2023-09-12T09:50:47;17.38;;;8.88;;
65998;SDS011;52766;56.008;37.440;2023-09-12T09:53:13;18.02;;;9.85;;
65998;SDS011;52766;56.008;37.440;2023-09-12T09:55:40;18.55;;;9.85;;
65998;SDS011;52766;56.008;37.440;2023-09-12T09:58:08;16.52;;;8.77;;
65998;SDS011;52766;56.008;37.440;2023-09-12T10:00:34;17.63;;;8.68;;
65998;SDS011;52766;56.008;37.440;2023-09-12T10:03:06;16.60;;;9.27;;
65998;SDS011;52766;56.008;37.440;2023-09-12T10:05:55;17.92;;;9.82;;
65998;SDS011;52766;56.008;37.440;2023-09-12T10:08:24;19.27;;;9.35;;
65998;SDS011;52766;56.008;37.440;2023-09-12T10:10:54;15.82;;;9.18;;
65998;SDS011;52766;56.008;37.440;2023-09-12T10:13:20;17.17;;;9.82;;
65998;SDS011;52766;56.008;37.440;2023-09-12T10:15:47;19.42;;;10.73;;
65998;SDS011;52766;56.008;37.440;2023-09-12T10:18:19;21.83;;;9.90;;
65998;SDS011;52766;56.008;37.440;2023-09-12T10:20:53;21.27;;;10.57;;
65998;SDS011;52766;56.008;37.440;2023-09-12T10:23:30;16.83;;;9.38;;
65998;SDS011;52766;56.008;37.440;2023-09-12T10:25:59;15.98;;;8.40;;
65998;SDS011;52766;56.008;37.440;2023-09-12T10:28:29;16.30;;;8.93;;
65998;SDS011;52766;56.008;37.440;2023-09-12T10:31:04;14.68;;;7.82;;
65998;SDS011;52766;56.008;37.440;2023-09-12T10:33:35;19.85;;;9.20;;
65998;SDS011;52766;56.008;37.440;2023-09-12T10:36:04;21.75;;;10.65;;
65998;SDS011;52766;56.008;37.440;2023-09-12T10:38:44;17.02;;;9.32;;
65998;SDS011;52766;56.008;37.440;2023-09-12T10:41:13;17.88;;;9.77;;
65998;SDS011;52766;56.008;37.440;2023-09-12T10:44:11;21.30;;;9.73;;
65998;SDS011;52766;56.008;37.440;2023-09-12T10:46:43;21.38;;;10.30;;
65998;SDS011;52766;56.008;37.440;2023-09-12T10:49:17;20.52;;;10.18;;
65998;SDS011;52766;56.008;37.440;2023-09-12T10:51:47;19.50;;;10.05;;
65998;SDS011;52766;56.008;37.440;2023-09-12T10:54:23;16.98;;;9.10;;
65998;SDS011;52766;56.008;37.440;2023-09-12T10:57:03;14.98;;;8.88;;
65998;SDS011;52766;56.008;37.440;2023-09-12T10:59:30;14.80;;;8.85;;
65998;SDS011;52766;56.008;37.440;2023-09-12T11:02:26;16.15;;;8.95;;
65998;SDS011;52766;56.008;37.440;2023-09-12T11:04:56;17.77;;;9.60;;
65998;SDS011;52766;56.008;37.440;2023-09-12T11:12:42;27.50;;;16.50;;
65998;SDS011;52766;56.008;37.440;2023-09-12T11:15:09;24.73;;;12.57;;
65998;SDS011;52766;56.008;37.440;2023-09-12T11:17:40;18.95;;;9.65;;
65998;SDS011;52766;56.008;37.440;2023-09-12T11:20:06;17.30;;;9.02;;
65998;SDS011;52766;56.008;37.440;2023-09-12T11:22:37;16.77;;;8.45;;
65998;SDS011;52766;56.008;37.440;2023-09-12T11:30:24;20.92;;;9.48;;
65998;SDS011;52766;56.008;37.440;2023-09-12T11:32:51;19.20;;;9.20;;
65998;SDS011;52766;56.008;37.440;2023-09-12T11:38:34;16.05;;;8.75;;
65998;SDS011;52766;56.008;37.440;2023-09-12T11:41:05;23.80;;;10.40;;
65998;SDS011;52766;56.008;37.440;2023-09-12T11:43:40;14.68;;;8.55;;
65998;SDS011;52766;56.008;37.440;2023-09-12T11:46:17;17.63;;;9.18;;
65998;SDS011;52766;56.008;37.440;2023-09-12T11:48:46;16.50;;;9.57;;
65998;SDS011;52766;56.008;37.440;2023-09-12T11:51:13;16.77;;;8.98;;
65998;SDS011;52766;56.008;37.440;2023-09-12T11:53:47;17.20;;;9.48;;
65998;SDS011;52766;56.008;37.440;2023-09-12T11:56:15;15.50;;;8.85;;
65998;SDS011;52766;56.008;37.440;2023-09-12T11:58:40;14.90;;;8.63;;
65998;SDS011;52766;56.008;37.440;2023-09-12T12:01:11;17.38;;;9.48;;
65998;SDS011;52766;56.008;37.440;2023-09-12T12:04:03;17.42;;;9.93;;
65998;SDS011;52766;56.008;37.440;2023-09-12T12:06:29;17.58;;;10.85;;
65998;SDS011;52766;56.008;37.440;2023-09-12T12:08:55;18.08;;;9.68;;
65998;SDS011;52766;56.008;37.440;2023-09-12T12:11:27;16.13;;;9.73;;
65998;SDS011;52766;56.008;37.440;2023-09-12T12:13:54;16.80;;;9.57;;
65998;SDS011;52766;56.008;37.440;2023-09-12T12:16:20;20.15;;;9.85;;
65998;SDS011;52766;56.008;37.440;2023-09-12T12:18:49;17.67;;;9.10;;
65998;SDS011;52766;56.008;37.440;2023-09-12T12:21:26;19.73;;;9.30;;
65998;SDS011;52766;56.008;37.440;2023-09-12T12:24:02;18.23;;;9.63;;
65998;SDS011;52766;56.008;37.440;2023-09-12T12:26:35;15.65;;;8.77;;
65998;SDS011;52766;56.008;37.440;2023-09-12T12:29:01;19.92;;;10.10;;
65998;SDS011;52766;56.008;37.440;2023-09-12T12:31:31;19.83;;;10.73;;
65998;SDS011;52766;56.008;37.440;2023-09-12T12:33:56;18.67;;;9.88;;
65998;SDS011;52766;56.008;37.440;2023-09-12T12:36:23;15.88;;;9.82;;
65998;SDS011;52766;56.008;37.440;2023-09-12T12:38:53;18.33;;;10.05;;
65998;SDS011;52766;56.008;37.440;2023-09-12T12:41:25;17.98;;;10.35;;
65998;SDS011;52766;56.008;37.440;2023-09-12T12:43:56;16.92;;;9.25;;
65998;SDS011;52766;56.008;37.440;2023-09-12T12:46:26;15.25;;;9.30;;
65998;SDS011;52766;56.008;37.440;2023-09-12T12:48:54;14.30;;;7.90;;
65998;SDS011;52766;56.008;37.440;2023-09-12T12:51:22;17.77;;;9.18;;
65998;SDS011;52766;56.008;37.440;2023-09-12T12:56:22;20.33;;;9.73;;
65998;SDS011;52766;56.008;37.440;2023-09-12T12:58:54;13.95;;;7.93;;
65998;SDS011;52766;56.008;37.440;2023-09-12T13:01:22;22.10;;;9.57;;
65998;SDS011;52766;56.008;37.440;2023-09-12T13:03:49;13.10;;;7.80;;
65998;SDS011;52766;56.008;37.440;2023-09-12T13:06:19;16.25;;;8.50;;
65998;SDS011;52766;56.008;37.440;2023-09-12T13:08:48;13.35;;;8.13;;
65998;SDS011;52766;56.008;37.440;2023-09-12T13:11:15;18.70;;;9.20;;
65998;SDS011;52766;56.008;37.440;2023-09-12T13:13:44;19.90;;;9.75;;
65998;SDS011;52766;56.008;37.440;2023-09-12T13:16:13;18.17;;;8.70;;
65998;SDS011;52766;56.008;37.440;2023-09-12T13:18:48;15.18;;;8.20;;
65998;SDS011;52766;56.008;37.440;2023-09-12T13:21:13;16.25;;;9.30;;
65998;SDS011;52766;56.008;37.440;2023-09-12T13:23:42;19.50;;;8.65;;
65998;SDS011;52766;56.008;37.440;2023-09-12T13:26:29;14.57;;;8.13;;
65998;SDS011;52766;56.008;37.440;2023-09-12T13:29:37;20.50;;;10.75;;
65998;SDS011;52766;56.008;37.440;2023-09-12T13:32:25;19.60;;;8.70;;
65998;SDS011;52766;56.008;37.440;2023-09-12T13:34:52;14.98;;;8.02;;
65998;SDS011;52766;56.008;37.440;2023-09-12T13:37:18;14.23;;;7.72;;
65998;SDS011;52766;56.008;37.440;2023-09-12T13:39:47;17.88;;;8.93;;
65998;SDS011;52766;56.008;37.440;2023-09-12T13:42:18;13.68;;;8.75;;
65998;SDS011;52766;56.008;37.440;2023-09-12T13:44:53;15.00;;;8.20;;
65998;SDS011;52766;56.008;37.440;2023-09-12T13:47:30;17.48;;;7.50;;
65998;SDS011;52766;56.008;37.440;2023-09-12T13:50:00;13.52;;;7.60;;
65998;SDS011;52766;56.008;37.440;2023-09-12T13:52:31;15.68;;;7.72;;
65998;SDS011;52766;56.008;37.440;2023-09-12T13:55:07;13.57;;;7.68;;
65998;SDS011;52766;56.008;37.440;2023-09-12T14:00:52;15.75;;;7.93;;
65998;SDS011;52766;56.008;37.440;2023-09-12T14:03:17;16.00;;;7.65;;
65998;SDS011;52766;56.008;37.440;2023-09-12T14:05:43;16.10;;;8.38;;
65998;SDS011;52766;56.008;37.440;2023-09-12T14:08:09;15.25;;;7.82;;
65998;SDS011;52766;56.008;37.440;2023-09-12T14:10:35;12.55;;;7.55;;
65998;SDS011;52766;56.008;37.440;2023-09-12T14:13:01;13.55;;;8.13;;
65998;SDS011;52766;56.008;37.440;2023-09-12T14:15:27;19.98;;;7.63;;
65998;SDS011;52766;56.008;37.440;2023-09-12T14:17:53;13.38;;;7.85;;
65998;SDS011;52766;56.008;37.440;2023-09-12T14:20:19;11.35;;;6.97;;
65998;SDS011;52766;56.008;37.440;2023-09-12T14:22:45;13.25;;;8.05;;
65998;SDS011;52766;56.008;37.440;2023-09-12T14:25:11;13.93;;;7.47;;
65998;SDS011;52766;56.008;37.440;2023-09-12T14:27:43;13.90;;;7.80;;
65998;SDS011;52766;56.008;37.440;2023-09-12T14:30:10;16.27;;;7.85;;
65998;SDS011;52766;56.008;37.440;2023-09-12T14:32:38;14.15;;;8.63;;
65998;SDS011;52766;56.008;37.440;2023-09-12T14:35:12;13.38;;;7.75;;
65998;SDS011;52766;56.008;37.440;2023-09-12T14:37:38;11.27;;;6.93;;
65998;SDS011;52766;56.008;37.440;2023-09-12T14:40:05;15.80;;;7.13;;
65998;SDS011;52766;56.008;37.440;2023-09-12T14:42:35;14.55;;;6.88;;
65998;SDS011;52766;56.008;37.440;2023-09-12T14:45:01;11.85;;;7.07;;
65998;SDS011;52766;56.008;37.440;2023-09-12T14:47:43;11.80;;;7.80;;
65998;SDS011;52766;56.008;37.440;2023-09-12T14:50:09;14.00;;;8.38;;
65998;SDS011;52766;56.008;37.440;2023-09-12T14:52:35;15.95;;;8.32;;
65998;SDS011;52766;56.008;37.440;2023-09-12T14:55:01;17.23;;;8.43;;
65998;SDS011;52766;56.008;37.440;2023-09-12T14:57:32;11.63;;;7.70;;